Time;durP1;ratioP1;P1;durP2;ratioP2;P2;SDS_P1;SDS_P2;PMS_P1;PMS_P2;Temp;Humidity;BMP_temperature;BMP_pressure;BME280_temperature;BME280_humidity;BME280_pressure;Samples;Min_cycle;Max_cycle;Signal;HPM_P1;HPM_P2
2020/12/10 00:01:50;;;;;;;9.63;5.80;;;3.70;99.90;;;;;;5133471;27;20731;-75
2020/12/10 00:04:17;;;;;;;11.07;6.23;;;3.70;99.90;;;;;;5133923;27;20221;-76
2020/12/10 00:06:43;;;;;;;11.27;6.03;;;3.70;99.90;;;;;;5133470;27;20715;-76
2020/12/10 00:09:09;;;;;;;12.33;6.20;;;3.70;99.90;;;;;;5133543;27;20687;-76
2020/12/10 00:11:36;;;;;;;10.73;6.33;;;3.80;99.90;;;;;;5122702;27;20200;-77
2020/12/10 00:14:03;;;;;;;10.83;5.77;;;3.70;99.90;;;;;;5129412;27;20202;-76
2020/12/10 00:16:30;;;;;;;10.17;5.47;;;3.80;99.90;;;;;;5133407;27;20199;-77
2020/12/10 00:18:56;;;;;;;10.30;5.67;;;3.90;99.90;;;;;;5127627;27;20206;-77
2020/12/10 00:21:23;;;;;;;9.30;5.33;;;3.90;99.90;;;;;;5132937;27;20209;-77
2020/12/10 00:23:50;;;;;;;9.37;5.57;;;3.90;99.90;;;;;;5133104;27;20222;-77
2020/12/10 00:26:18;;;;;;;9.83;5.00;;;3.80;99.90;;;;;;5132664;27;20217;-76
2020/12/10 00:28:44;;;;;;;12.33;5.67;;;3.80;99.90;;;;;;5132930;27;20203;-76
2020/12/10 00:31:11;;;;;;;8.87;5.40;;;3.80;99.90;;;;;;5132765;27;20550;-76
2020/12/10 00:33:38;;;;;;;10.13;5.00;;;3.90;99.90;;;;;;5133475;27;20543;-75
2020/12/10 00:36:04;;;;;;;8.73;5.37;;;3.80;99.90;;;;;;5140983;27;20652;-77
2020/12/10 00:38:31;;;;;;;10.63;5.00;;;3.80;99.90;;;;;;5133241;27;20194;-76
2020/12/10 00:40:57;;;;;;;11.03;5.53;;;3.80;99.90;;;;;;5132345;27;20208;-77
2020/12/10 00:43:24;;;;;;;9.13;4.87;;;3.80;99.90;;;;;;5132855;27;20579;-76
2020/12/10 00:45:50;;;;;;;9.40;5.40;;;3.80;99.90;;;;;;5132601;27;20230;-76
2020/12/10 00:48:16;;;;;;;8.80;4.90;;;3.80;99.90;;;;;;5133196;27;20197;-76
2020/12/10 00:50:43;;;;;;;10.47;5.20;;;3.70;99.90;;;;;;5132757;27;20216;-76
2020/12/10 00:53:10;;;;;;;10.70;5.57;;;3.70;99.90;;;;;;5132669;27;20659;-76
2020/12/10 00:55:36;;;;;;;9.40;5.33;;;3.70;99.90;;;;;;5131651;27;20209;-76
2020/12/10 00:58:03;;;;;;;10.67;6.10;;;3.60;99.90;;;;;;5127000;27;20203;-76
2020/12/10 01:00:29;;;;;;;9.93;4.83;;;3.50;99.90;;;;;;5129064;27;20229;-77
2020/12/10 01:02:55;;;;;;;10.27;5.10;;;3.50;99.90;;;;;;5132394;27;20707;-76
2020/12/10 01:05:21;;;;;;;10.17;5.30;;;3.40;99.90;;;;;;5132748;27;20298;-77
2020/12/10 01:07:50;;;;;;;10.47;5.77;;;3.40;99.90;;;;;;5132780;27;20206;-77
2020/12/10 01:10:17;;;;;;;10.50;5.20;;;3.40;99.90;;;;;;5132729;27;20250;-77
2020/12/10 01:12:43;;;;;;;10.33;5.37;;;3.50;99.90;;;;;;5132507;27;20230;-77
2020/12/10 01:15:10;;;;;;;10.50;5.53;;;3.40;99.90;;;;;;5133012;27;20204;-76
2020/12/10 01:17:36;;;;;;;8.80;4.77;;;3.40;99.90;;;;;;5132576;27;20226;-76
2020/12/10 01:20:03;;;;;;;8.87;4.67;;;3.40;99.90;;;;;;5131920;27;20203;-76
2020/12/10 01:22:29;;;;;;;9.20;5.13;;;3.40;99.90;;;;;;5132112;27;20228;-77
2020/12/10 01:24:56;;;;;;;9.23;4.70;;;3.50;99.90;;;;;;5132919;27;20202;-76
2020/12/10 01:27:23;;;;;;;8.47;4.70;;;3.60;99.90;;;;;;5132467;27;20201;-78
2020/12/10 01:29:49;;;;;;;8.03;4.20;;;3.70;99.90;;;;;;5117923;27;20199;-77
2020/12/10 01:32:16;;;;;;;7.77;4.33;;;3.60;99.90;;;;;;5130395;27;20203;-78
2020/12/10 01:34:42;;;;;;;7.10;3.90;;;3.70;99.90;;;;;;5131981;27;20586;-76
2020/12/10 01:37:09;;;;;;;6.37;3.80;;;3.70;99.90;;;;;;5132179;27;20206;-77
2020/12/10 01:39:35;;;;;;;6.13;4.03;;;3.60;99.90;;;;;;5132579;27;20557;-76
2020/12/10 01:42:03;;;;;;;8.33;4.77;;;3.70;99.90;;;;;;5132395;27;20254;-77
2020/12/10 01:44:29;;;;;;;6.87;4.30;;;3.70;99.90;;;;;;5132615;27;20200;-76
2020/12/10 01:46:55;;;;;;;8.00;4.50;;;3.80;99.90;;;;;;5132278;27;20196;-77
2020/12/10 01:49:24;;;;;;;7.87;4.00;;;3.90;99.90;;;;;;5132557;27;20213;-76
2020/12/10 01:51:51;;;;;;;6.83;4.17;;;3.80;99.90;;;;;;5132260;27;20233;-78
2020/12/10 01:54:17;;;;;;;7.13;3.53;;;3.80;99.90;;;;;;5135244;27;20205;-78
2020/12/10 01:56:43;;;;;;;7.57;4.00;;;3.90;99.90;;;;;;5136193;27;20285;-75
2020/12/10 01:59:12;;;;;;;7.37;4.50;;;4.00;99.90;;;;;;5136166;27;20203;-75
2020/12/10 02:01:39;;;;;;;6.70;3.60;;;3.90;99.90;;;;;;5135489;27;20216;-74
2020/12/10 02:04:24;;;;;;;7.10;3.60;;;4.00;99.90;;;;;;5136081;27;20297;-75
2020/12/10 02:06:50;;;;;;;6.53;3.47;;;3.90;99.90;;;;;;5135269;27;20199;-75
2020/12/10 02:09:17;;;;;;;7.03;3.73;;;3.90;99.90;;;;;;5136381;27;20204;-77
2020/12/10 02:11:43;;;;;;;5.30;3.57;;;3.90;99.90;;;;;;5135301;27;20282;-76
2020/12/10 02:14:10;;;;;;;5.67;3.10;;;3.90;99.90;;;;;;5134973;27;20211;-77
2020/12/10 02:16:37;;;;;;;5.30;3.43;;;3.90;99.90;;;;;;5134161;27;20290;-75
2020/12/10 02:19:03;;;;;;;5.53;3.30;;;3.80;99.90;;;;;;5135154;27;20673;-77
2020/12/10 02:21:30;;;;;;;7.43;3.40;;;3.90;99.90;;;;;;5133988;27;20209;-77
2020/12/10 02:23:57;;;;;;;5.43;3.30;;;3.90;99.90;;;;;;5134845;27;20195;-76
2020/12/10 02:26:23;;;;;;;6.27;3.17;;;3.80;99.90;;;;;;5134468;27;20356;-77
2020/12/10 02:28:50;;;;;;;6.03;3.13;;;3.90;99.90;;;;;;5134160;27;20201;-75
2020/12/10 02:31:21;;;;;;;4.60;3.03;;;3.80;99.90;;;;;;5134441;27;20212;-76
2020/12/10 02:33:48;;;;;;;5.80;2.90;;;3.90;99.90;;;;;;5134355;27;20203;-75
2020/12/10 02:36:14;;;;;;;5.20;3.37;;;3.90;99.90;;;;;;5134545;27;20231;-74
2020/12/10 02:38:40;;;;;;;5.70;3.60;;;3.90;99.90;;;;;;5134537;27;20206;-75
2020/12/10 02:41:08;;;;;;;4.90;3.00;;;3.90;99.90;;;;;;5134164;27;20202;-75
2020/12/10 02:43:34;;;;;;;5.17;2.77;;;3.80;99.90;;;;;;5133748;27;20224;-75
2020/12/10 02:46:00;;;;;;;7.13;3.00;;;4.00;99.90;;;;;;5133921;27;20191;-75
2020/12/10 02:48:27;;;;;;;4.70;2.87;;;4.00;99.90;;;;;;5134080;27;20196;-76
2020/12/10 02:50:53;;;;;;;3.90;2.77;;;4.10;99.90;;;;;;5133887;27;20199;-75
2020/12/10 02:53:19;;;;;;;4.60;2.90;;;4.00;99.90;;;;;;5134453;27;20230;-75
2020/12/10 02:55:45;;;;;;;4.90;2.87;;;4.00;99.90;;;;;;5133941;27;20208;-74
2020/12/10 02:58:13;;;;;;;5.03;2.90;;;4.00;99.90;;;;;;5134190;27;20212;-75
2020/12/10 03:00:39;;;;;;;6.10;3.10;;;4.00;99.90;;;;;;5133551;27;20198;-76
2020/12/10 03:03:05;;;;;;;6.73;3.03;;;4.00;99.90;;;;;;5133929;27;20227;-77
2020/12/10 03:05:32;;;;;;;5.67;3.10;;;3.80;99.90;;;;;;5133249;27;20590;-77
2020/12/10 03:07:58;;;;;;;4.90;3.27;;;3.80;99.90;;;;;;5133323;27;20766;-77
2020/12/10 03:10:24;;;;;;;5.83;3.10;;;3.70;99.90;;;;;;5134011;27;20200;-77
2020/12/10 03:12:51;;;;;;;5.70;3.13;;;3.70;99.90;;;;;;5133232;27;20199;-77
2020/12/10 03:15:18;;;;;;;5.03;3.60;;;3.80;99.90;;;;;;5134078;27;20687;-78
2020/12/10 03:17:44;;;;;;;5.33;3.10;;;3.80;99.90;;;;;;5133628;27;20293;-77
2020/12/10 03:20:11;;;;;;;6.77;3.20;;;3.70;99.90;;;;;;5134439;27;20200;-76
2020/12/10 03:22:37;;;;;;;6.10;3.30;;;3.70;99.90;;;;;;5133968;27;20223;-76
2020/12/10 03:25:03;;;;;;;6.33;3.57;;;3.80;99.90;;;;;;5132590;27;20289;-77
2020/12/10 03:27:30;;;;;;;5.93;3.10;;;3.70;99.90;;;;;;5133495;27;20580;-76
2020/12/10 03:29:56;;;;;;;8.87;3.73;;;3.70;99.90;;;;;;5133774;27;20298;-76
2020/12/10 03:32:23;;;;;;;5.37;3.20;;;3.80;99.90;;;;;;5133311;27;20296;-77
2020/12/10 03:34:50;;;;;;;5.70;3.40;;;3.80;99.90;;;;;;5133597;27;20610;-76
2020/12/10 03:37:17;;;;;;;5.33;3.17;;;3.70;99.90;;;;;;5133679;27;20218;-76
2020/12/10 03:39:44;;;;;;;6.00;3.37;;;3.80;99.90;;;;;;5133635;27;20195;-77
2020/12/10 03:42:11;;;;;;;5.80;3.03;;;3.70;99.90;;;;;;5132874;27;20229;-76
2020/12/10 03:44:37;;;;;;;5.33;3.47;;;3.80;99.90;;;;;;5133452;27;20202;-77
2020/12/10 03:47:04;;;;;;;5.50;3.20;;;3.80;99.90;;;;;;5133249;27;20210;-76
2020/12/10 03:49:32;;;;;;;6.37;3.60;;;3.80;99.90;;;;;;5133592;27;20217;-76
2020/12/10 03:51:58;;;;;;;5.87;3.60;;;3.90;99.90;;;;;;5132903;27;20198;-78
2020/12/10 03:54:25;;;;;;;6.47;3.93;;;4.00;99.90;;;;;;5133228;27;20205;-77
2020/12/10 03:56:51;;;;;;;7.43;3.80;;;4.20;99.90;;;;;;5133430;27;20286;-77
2020/12/10 03:59:18;;;;;;;6.50;3.43;;;4.30;99.90;;;;;;5133122;27;20207;-77
2020/12/10 04:01:44;;;;;;;5.80;3.10;;;4.50;99.90;;;;;;5128338;27;20197;-78
2020/12/10 04:04:10;;;;;;;7.10;3.33;;;4.50;99.90;;;;;;5133314;27;20209;-76
2020/12/10 04:06:42;;;;;;;6.90;3.50;;;4.40;99.90;;;;;;5126629;27;20216;-78
2020/12/10 04:09:09;;;;;;;6.73;3.60;;;4.50;99.90;;;;;;5133401;27;20203;-76
2020/12/10 04:11:35;;;;;;;6.63;3.63;;;4.60;99.90;;;;;;5132096;27;20200;-76
2020/12/10 04:14:02;;;;;;;6.50;4.07;;;4.70;99.90;;;;;;5133110;27;20241;-77
2020/12/10 04:16:28;;;;;;;6.40;3.50;;;4.70;99.90;;;;;;5132412;27;20282;-76
2020/12/10 04:18:54;;;;;;;5.27;3.30;;;4.70;99.90;;;;;;5133271;27;20372;-76
2020/12/10 04:21:21;;;;;;;6.70;3.40;;;4.70;99.90;;;;;;5132360;27;20233;-78
2020/12/10 04:23:48;;;;;;;5.80;3.27;;;4.80;99.90;;;;;;5132986;27;20217;-77
2020/12/10 04:26:15;;;;;;;7.40;3.80;;;4.80;99.90;;;;;;5132485;27;20606;-77
2020/12/10 04:28:42;;;;;;;6.67;3.83;;;4.90;99.90;;;;;;5125472;27;20672;-77
2020/12/10 04:31:08;;;;;;;7.20;3.77;;;4.90;99.90;;;;;;5132509;27;20314;-77
2020/12/10 04:33:35;;;;;;;6.47;3.70;;;5.00;99.90;;;;;;5121252;27;20209;-76
2020/12/10 04:36:02;;;;;;;6.70;3.87;;;5.00;99.90;;;;;;5112200;27;20233;-77
2020/12/10 04:38:28;;;;;;;9.20;3.80;;;5.00;99.90;;;;;;5112641;27;20252;-77
2020/12/10 04:40:59;;;;;;;7.97;3.90;;;5.10;99.90;;;;;;5114727;27;20691;-77
2020/12/10 04:43:26;;;;;;;8.33;4.00;;;5.00;99.90;;;;;;5112967;27;20294;-76
2020/12/10 04:45:57;;;;;;;7.20;4.00;;;5.20;99.90;;;;;;5112692;27;20681;-77
2020/12/10 04:48:26;;;;;;;8.90;3.90;;;5.00;99.90;;;;;;5111732;27;20204;-75
2020/12/10 04:50:54;;;;;;;8.17;4.13;;;5.00;99.90;;;;;;5114474;27;20289;-77
2020/12/10 04:53:22;;;;;;;9.20;4.03;;;5.00;99.90;;;;;;5132468;27;20207;-77
2020/12/10 04:55:49;;;;;;;10.93;4.43;;;5.10;99.90;;;;;;5131482;27;20292;-78
2020/12/10 04:58:16;;;;;;;9.30;3.87;;;5.30;99.90;;;;;;5133295;27;20199;-78
2020/12/10 05:00:43;;;;;;;6.57;3.97;;;5.30;99.90;;;;;;5133698;27;20289;-77
2020/12/10 05:03:11;;;;;;;7.10;3.60;;;5.40;99.90;;;;;;5133392;27;20232;-77
2020/12/10 05:05:37;;;;;;;8.30;4.30;;;5.40;99.90;;;;;;5136709;27;20379;-78
2020/12/10 05:08:05;;;;;;;9.03;4.27;;;5.40;99.90;;;;;;5136251;27;20659;-77
2020/12/10 05:10:43;;;;;;;9.57;4.47;;;5.50;99.90;;;;;;5135005;27;20195;-76
2020/12/10 05:13:11;;;;;;;10.27;4.50;;;5.50;99.90;;;;;;5135135;27;20479;-76
2020/12/10 05:15:40;;;;;;;7.20;4.20;;;5.50;99.90;;;;;;5134499;27;20574;-76
2020/12/10 05:18:08;;;;;;;8.10;4.40;;;5.50;99.90;;;;;;5116732;27;20199;-74
2020/12/10 05:20:43;;;;;;;9.27;4.20;;;5.40;99.90;;;;;;5113508;27;20196;-77
2020/12/10 05:23:10;;;;;;;6.80;4.20;;;5.50;99.90;;;;;;5116561;27;20589;-76
2020/12/10 05:25:47;;;;;;;9.90;4.63;;;5.50;99.90;;;;;;5120415;27;20255;-78
2020/12/10 05:28:14;;;;;;;9.93;4.90;;;5.50;99.90;;;;;;5124783;27;20298;-77
2020/12/10 05:30:44;;;;;;;9.97;4.57;;;5.40;99.90;;;;;;5122906;27;20275;-76
2020/12/10 05:33:12;;;;;;;8.73;4.53;;;5.40;99.90;;;;;;5135788;27;20204;-76
2020/12/10 05:35:39;;;;;;;10.13;5.00;;;5.50;99.90;;;;;;5135218;27;20195;-77
2020/12/10 05:38:08;;;;;;;11.57;5.03;;;5.60;99.90;;;;;;5135963;27;20203;-77
2020/12/10 05:40:35;;;;;;;12.70;4.90;;;5.40;99.90;;;;;;5131523;27;20208;-76
2020/12/10 05:43:01;;;;;;;9.67;5.30;;;5.50;99.90;;;;;;5135303;27;20214;-75
2020/12/10 05:45:28;;;;;;;8.63;4.90;;;5.50;99.90;;;;;;5135788;27;20198;-76
2020/12/10 05:47:56;;;;;;;9.60;4.87;;;5.50;99.90;;;;;;5134436;27;20207;-77
2020/12/10 05:50:27;;;;;;;8.80;4.60;;;5.40;99.90;;;;;;5134569;27;20201;-75
2020/12/10 05:53:08;;;;;;;11.10;5.30;;;5.30;99.90;;;;;;5135846;27;20199;-76
2020/12/10 05:55:35;;;;;;;9.50;4.40;;;5.40;99.90;;;;;;5135976;27;20190;-77
2020/12/10 05:58:04;;;;;;;10.53;4.77;;;5.50;99.90;;;;;;5135593;27;20366;-77
2020/12/10 06:00:33;;;;;;;10.53;5.37;;;5.40;99.90;;;;;;5135311;27;20203;-78
2020/12/10 06:05:41;;;;;;;9.97;4.90;;;5.50;99.90;;;;;;5136571;27;20199;-77
2020/12/10 06:08:09;;;;;;;11.33;5.10;;;5.60;99.90;;;;;;5135935;27;20207;-77
2020/12/10 06:10:37;;;;;;;13.17;5.70;;;5.70;99.90;;;;;;5136433;27;20199;-77
2020/12/10 06:13:05;;;;;;;12.43;5.50;;;5.50;99.90;;;;;;5131834;27;20286;-77
2020/12/10 06:15:33;;;;;;;8.93;5.13;;;5.60;99.90;;;;;;5129463;27;20198;-76
2020/12/10 06:18:04;;;;;;;11.90;5.53;;;5.50;99.90;;;;;;5133931;27;20196;-78
2020/12/10 06:20:36;;;;;;;9.47;5.03;;;5.40;99.90;;;;;;5134373;27;20203;-77
2020/12/10 06:23:32;;;;;;;13.87;5.10;;;5.40;99.90;;;;;;5132807;27;20733;-77
2020/12/10 06:26:01;;;;;;;9.73;5.40;;;5.40;99.90;;;;;;5126081;27;20607;-78
2020/12/10 06:28:27;;;;;;;9.33;5.37;;;5.40;99.90;;;;;;5126897;27;20276;-77
2020/12/10 06:31:06;;;;;;;11.90;5.13;;;5.30;99.90;;;;;;5126171;27;20209;-79
2020/12/10 06:33:36;;;;;;;9.60;5.33;;;5.50;99.90;;;;;;5128746;27;20204;-78
2020/12/10 06:36:19;;;;;;;10.43;5.90;;;5.50;99.90;;;;;;5134330;27;20672;-77
2020/12/10 06:39:00;;;;;;;11.20;5.50;;;5.40;99.90;;;;;;5112780;28;20203;-78
2020/12/10 06:41:28;;;;;;;10.13;5.17;;;5.40;99.90;;;;;;5122089;27;20194;-76
2020/12/10 06:43:54;;;;;;;10.03;5.77;;;5.40;99.90;;;;;;5126727;27;20308;-76
2020/12/10 06:46:28;;;;;;;13.37;5.60;;;5.30;99.90;;;;;;5113618;28;20195;-76
2020/12/10 06:48:56;;;;;;;11.43;7.05;;;5.40;99.90;;;;;;5131090;27;20440;-79
2020/12/10 06:51:22;;;;;;;11.67;6.33;;;5.30;99.90;;;;;;5131479;27;20717;-77
2020/12/10 06:54:08;;;;;;;11.67;6.07;;;5.40;99.90;;;;;;5130735;27;20194;-78
2020/12/10 06:57:00;;;;;;;8.93;5.40;;;5.40;99.90;;;;;;5133390;27;20625;-77
2020/12/10 06:59:37;;;;;;;11.33;6.23;;;5.50;99.90;;;;;;5132031;27;20593;-76
2020/12/10 07:02:11;;;;;;;9.93;5.73;;;5.50;99.90;;;;;;5132121;27;20207;-77
2020/12/10 07:04:47;;;;;;;11.00;5.80;;;5.40;99.90;;;;;;5133640;27;20224;-76
2020/12/10 07:07:15;;;;;;;12.70;6.87;;;5.40;99.90;;;;;;5132561;27;20883;-76
2020/12/10 07:09:49;;;;;;;13.13;6.03;;;5.40;99.90;;;;;;5134091;27;20274;-76
2020/12/10 07:15:13;;;;;;;12.63;6.37;;;5.40;99.90;;;;;;5133639;27;20679;-76
2020/12/10 07:17:40;;;;;;;10.33;5.83;;;5.50;99.90;;;;;;5134775;27;20192;-76
2020/12/10 07:20:12;;;;;;;14.83;7.00;;;5.60;99.90;;;;;;5134380;27;20361;-76
2020/12/10 07:22:39;;;;;;;12.90;6.57;;;5.40;99.90;;;;;;5134130;27;20253;-75
2020/12/10 07:27:46;;;;;;;13.47;6.30;;;5.50;99.90;;;;;;5133131;27;20202;-75
2020/12/10 07:30:12;;;;;;;14.23;6.13;;;5.50;99.90;;;;;;5133170;27;20199;-75
2020/12/10 07:32:39;;;;;;;13.87;5.97;;;5.50;99.90;;;;;;5133662;27;20205;-77
2020/12/10 07:35:20;;;;;;;12.33;6.03;;;5.40;99.90;;;;;;5132354;27;20575;-78
2020/12/10 07:37:48;;;;;;;11.73;6.07;;;5.40;99.90;;;;;;5123408;27;20205;-76
2020/12/10 07:40:16;;;;;;;12.60;5.97;;;5.40;99.90;;;;;;5133333;27;20599;-76
2020/12/10 07:42:43;;;;;;;13.73;6.10;;;5.60;99.90;;;;;;5133450;27;20211;-76
2020/12/10 07:45:11;;;;;;;11.27;6.00;;;5.60;99.90;;;;;;5130377;27;20203;-76
2020/12/10 07:50:22;;;;;;;14.80;6.73;;;5.60;99.90;;;;;;5132382;27;20198;-77
2020/12/10 07:55:36;;;;;;;13.43;6.70;;;5.40;99.90;;;;;;5133440;27;20752;-76
2020/12/10 07:58:18;;;;;;;12.93;6.90;;;5.40;99.90;;;;;;5133241;27;20730;-77
2020/12/10 08:00:46;;;;;;;12.60;7.03;;;5.30;99.90;;;;;;5133503;27;20205;-76
2020/12/10 08:03:26;;;;;;;13.03;6.80;;;5.40;99.90;;;;;;5133126;27;20226;-76
2020/12/10 08:06:04;;;;;;;14.80;7.07;;;5.40;99.90;;;;;;5112203;28;20199;-76
2020/12/10 08:11:17;;;;;;;10.77;6.60;;;5.50;99.90;;;;;;5133176;27;20683;-77
2020/12/10 08:13:58;;;;;;;11.37;6.77;;;5.50;99.90;;;;;;5133336;27;20203;-76
2020/12/10 08:16:42;;;;;;;14.17;7.00;;;5.40;99.90;;;;;;5132872;27;20558;-76
2020/12/10 08:19:37;;;;;;;13.07;6.63;;;5.50;99.90;;;;;;5132735;27;20636;-76
2020/12/10 08:22:19;;;;;;;12.37;6.57;;;5.70;99.90;;;;;;5133308;27;20227;-76
2020/12/10 08:24:47;;;;;;;13.37;6.33;;;5.70;99.90;;;;;;5133226;27;20186;-76
2020/12/10 08:27:18;;;;;;;10.70;6.13;;;5.70;99.90;;;;;;5133445;27;20210;-77
2020/12/10 08:29:58;;;;;;;11.73;6.60;;;5.70;99.90;;;;;;5132104;27;20206;-78
2020/12/10 08:32:25;;;;;;;12.43;6.63;;;5.70;99.90;;;;;;5132901;27;20230;-76
2020/12/10 08:35:02;;;;;;;14.90;6.57;;;5.80;99.90;;;;;;5133074;27;20193;-77
2020/12/10 08:37:38;;;;;;;12.60;6.70;;;5.90;99.90;;;;;;5132912;27;20248;-76
2020/12/10 08:40:22;;;;;;;12.03;6.67;;;5.90;99.90;;;;;;5132589;27;20251;-78
2020/12/10 08:42:49;;;;;;;15.47;7.27;;;6.00;99.90;;;;;;5133004;27;20222;-77
2020/12/10 08:45:31;;;;;;;11.97;6.40;;;6.00;99.90;;;;;;5132315;27;20218;-76
2020/12/10 08:47:59;;;;;;;13.70;6.60;;;5.90;99.90;;;;;;5132541;27;20195;-76
2020/12/10 08:50:26;;;;;;;12.73;6.33;;;5.80;99.90;;;;;;5133311;27;20703;-75
2020/12/10 08:53:09;;;;;;;15.03;6.80;;;6.00;99.90;;;;;;5133004;27;20230;-75
2020/12/10 08:55:41;;;;;;;12.27;6.27;;;6.20;99.90;;;;;;5133226;27;20199;-77
2020/12/10 08:58:08;;;;;;;15.63;7.13;;;6.20;99.90;;;;;;5132052;28;20277;-76
2020/12/10 09:00:37;;;;;;;11.67;7.00;;;6.10;99.90;;;;;;5132091;27;20281;-76
2020/12/10 09:03:04;;;;;;;11.57;6.47;;;6.00;99.90;;;;;;5134953;27;20689;-75
2020/12/10 09:05:32;;;;;;;12.37;6.47;;;6.10;99.90;;;;;;5136861;27;20202;-76
2020/12/10 09:08:00;;;;;;;11.20;6.27;;;6.10;99.90;;;;;;5136425;27;20300;-76
2020/12/10 09:10:29;;;;;;;18.00;6.73;;;6.00;99.90;;;;;;5136926;27;20200;-76
2020/12/10 09:15:39;;;;;;;13.73;6.33;;;6.10;99.90;;;;;;5136908;27;20221;-78
2020/12/10 09:18:06;;;;;;;11.47;6.23;;;6.10;99.90;;;;;;5136724;27;20195;-77
2020/12/10 09:20:32;;;;;;;11.23;6.30;;;6.10;99.90;;;;;;5137108;27;20255;-77
2020/12/10 09:22:58;;;;;;;12.20;6.20;;;6.20;99.90;;;;;;5136472;27;20657;-79
2020/12/10 09:25:26;;;;;;;12.00;6.37;;;6.30;99.90;;;;;;5136184;27;20198;-78
2020/12/10 09:27:53;;;;;;;12.83;6.80;;;6.40;99.90;;;;;;5136244;27;20195;-77
2020/12/10 09:30:35;;;;;;;11.87;5.93;;;6.30;99.90;;;;;;5136507;27;20206;-78
2020/12/10 09:35:42;;;;;;;11.03;5.87;;;6.40;99.90;;;;;;5134814;27;20207;-77
2020/12/10 09:38:10;;;;;;;10.80;5.80;;;6.50;99.90;;;;;;5135825;27;20631;-78
2020/12/10 09:40:37;;;;;;;10.97;6.50;;;6.60;99.90;;;;;;5136523;27;20276;-77
2020/12/10 09:48:40;;;;;;;11.63;6.57;;;6.90;99.90;;;;;;5135069;27;20201;-78
2020/12/10 09:54:08;;;;;;;9.97;6.13;;;6.80;99.90;;;;;;5134663;27;20203;-77
2020/12/10 09:57:03;;;;;;;10.10;5.87;;;6.90;99.90;;;;;;5135332;27;20182;-78
2020/12/10 09:59:32;;;;;;;9.93;5.90;;;6.90;99.90;;;;;;5115560;28;20197;-78
2020/12/10 10:01:59;;;;;;;10.33;6.03;;;6.70;99.90;;;;;;5114882;28;20825;-78
2020/12/10 10:04:25;;;;;;;10.37;5.60;;;6.80;99.90;;;;;;5112055;28;20227;-79
2020/12/10 10:06:51;;;;;;;11.60;6.13;;;6.80;99.90;;;;;;5116582;27;20208;-78
2020/12/10 10:09:18;;;;;;;10.93;6.23;;;6.60;99.90;;;;;;5135111;27;20285;-76
2020/12/10 10:17:11;;;;;;;9.70;5.87;;;6.90;99.90;;;;;;5135351;27;20202;-79
2020/12/10 10:19:54;;;;;;;11.73;6.13;;;6.90;99.90;;;;;;5152016;27;20196;-79
2020/12/10 10:22:21;;;;;;;9.73;5.43;;;7.10;99.90;;;;;;5135189;27;20198;-77
2020/12/10 10:24:47;;;;;;;12.57;6.33;;;7.10;99.90;;;;;;5134095;27;20320;-79
2020/12/10 10:27:13;;;;;;;12.23;6.80;;;7.10;99.90;;;;;;5135363;27;20290;-77
2020/12/10 10:29:41;;;;;;;10.53;5.63;;;7.20;99.90;;;;;;5135510;27;20195;-75
2020/12/10 10:32:28;;;;;;;10.43;5.77;;;7.30;99.90;;;;;;5135338;27;20201;-76
2020/12/10 10:34:59;;;;;;;11.00;5.97;;;7.30;99.90;;;;;;5134836;27;20294;-76
2020/12/10 10:45:37;;;;;;;9.30;5.63;;;7.50;99.90;;;;;;5134516;27;20285;-76
2020/12/10 10:48:20;;;;;;;12.80;6.20;;;7.40;99.90;;;;;;5132603;27;20664;-79
2020/12/10 10:50:47;;;;;;;12.10;6.13;;;7.40;99.90;;;;;;5132481;27;20218;-79
2020/12/10 10:53:13;;;;;;;10.17;5.73;;;7.30;99.90;;;;;;5134578;27;20290;-79
2020/12/10 10:58:21;;;;;;;11.87;5.63;;;7.50;99.90;;;;;;5134740;27;20207;-77
2020/12/10 11:00:48;;;;;;;11.77;6.37;;;7.70;99.90;;;;;;5134884;27;20195;-78
2020/12/10 11:03:31;;;;;;;11.10;6.27;;;7.80;99.90;;;;;;5134070;27;20225;-77
2020/12/10 11:05:57;;;;;;;10.57;6.03;;;7.70;99.90;;;;;;5130229;27;20650;-78
2020/12/10 11:08:46;;;;;;;10.83;5.53;;;7.90;99.90;;;;;;5119041;27;20325;-78
2020/12/10 11:16:56;;;;;;;11.57;6.27;;;7.90;99.90;;;;;;5133660;27;20233;-77
2020/12/10 11:22:21;;;;;;;9.40;5.10;;;7.80;99.90;;;;;;5135128;27;20198;-77
2020/12/10 11:24:47;;;;;;;14.40;5.80;;;7.90;99.90;;;;;;5134122;27;20223;-78
2020/12/10 11:27:17;;;;;;;11.47;6.37;;;8.10;99.90;;;;;;5133154;27;20652;-77
2020/12/10 11:29:43;;;;;;;14.23;5.80;;;8.30;99.90;;;;;;5133435;27;20569;-77
2020/12/10 11:32:10;;;;;;;12.87;6.37;;;8.30;99.90;;;;;;5133400;27;20723;-80
2020/12/10 11:34:57;;;;;;;8.50;5.53;;;8.30;99.90;;;;;;5139732;27;20715;-78
2020/12/10 11:37:24;;;;;;;15.53;6.30;;;8.20;99.90;;;;;;5116902;27;20210;-78
2020/12/10 11:39:54;;;;;;;12.37;6.50;;;8.30;99.90;;;;;;5123321;27;20298;-77
2020/12/10 11:42:24;;;;;;;13.30;6.13;;;8.20;99.90;;;;;;5121496;27;20210;-80
2020/12/10 11:44:50;;;;;;;10.80;6.17;;;8.00;99.90;;;;;;5131584;27;20229;-78
2020/12/10 11:47:18;;;;;;;12.10;6.20;;;7.90;99.90;;;;;;5129413;27;20226;-76
2020/12/10 11:49:44;;;;;;;10.37;5.97;;;7.90;99.90;;;;;;5127720;27;20193;-76
2020/12/10 11:55:11;;;;;;;12.03;5.97;;;7.80;99.90;;;;;;5121766;27;20213;-76
2020/12/10 11:57:40;;;;;;;15.33;6.30;;;7.70;99.90;;;;;;5115145;27;20204;-78
2020/12/10 12:00:07;;;;;;;10.93;6.23;;;7.70;99.90;;;;;;5117523;27;20186;-79
2020/12/10 12:05:41;;;;;;;11.73;6.47;;;7.70;99.90;;;;;;5123053;27;20705;-77
2020/12/10 12:08:07;;;;;;;10.63;5.60;;;7.70;99.90;;;;;;5125710;27;20695;-79
2020/12/10 12:11:02;;;;;;;11.77;6.13;;;7.70;99.90;;;;;;5121226;27;20205;-79
2020/12/10 12:13:31;;;;;;;11.67;6.17;;;7.70;99.90;;;;;;5118735;27;20204;-79
2020/12/10 12:16:06;;;;;;;10.23;5.53;;;7.90;99.90;;;;;;5124401;27;20198;-80
2020/12/10 12:18:33;;;;;;;10.33;5.60;;;7.90;99.90;;;;;;5122670;27;20539;-78
2020/12/10 12:20:59;;;;;;;12.77;6.37;;;7.80;99.90;;;;;;5121130;27;20281;-78
2020/12/10 12:23:46;;;;;;;9.57;6.17;;;7.80;99.90;;;;;;5124123;27;20238;-78
2020/12/10 12:26:13;;;;;;;10.97;6.10;;;7.90;99.90;;;;;;5120747;27;20278;-78
2020/12/10 12:28:39;;;;;;;12.80;6.33;;;7.90;99.90;;;;;;5122449;27;20325;-80
2020/12/10 12:31:09;;;;;;;12.00;6.37;;;7.90;99.90;;;;;;5119318;27;20286;-75
2020/12/10 12:33:36;;;;;;;10.63;6.00;;;7.90;99.90;;;;;;5118681;27;20592;-76
2020/12/10 12:36:06;;;;;;;13.00;6.10;;;7.70;99.90;;;;;;5127259;27;20294;-76
2020/12/10 12:38:54;;;;;;;11.60;5.93;;;7.80;99.90;;;;;;5124817;27;20743;-75
2020/12/10 12:41:40;;;;;;;13.13;5.80;;;7.90;99.90;;;;;;5123680;27;20202;-76
2020/12/10 12:44:36;;;;;;;13.47;6.20;;;7.80;99.90;;;;;;5123622;27;20297;-76
2020/12/10 12:47:06;;;;;;;14.83;6.33;;;7.80;99.90;;;;;;5121802;27;20309;-75
2020/12/10 12:49:33;;;;;;;12.47;6.10;;;7.90;99.90;;;;;;5124076;27;20184;-76
2020/12/10 12:52:26;;;;;;;11.00;6.40;;;8.00;99.90;;;;;;5121970;27;20286;-75
2020/12/10 12:54:54;;;;;;;12.63;5.93;;;8.10;99.90;;;;;;5123934;27;20206;-77
2020/12/10 13:00:26;;;;;;;12.43;5.63;;;7.90;99.90;;;;;;5125421;27;20269;-77
2020/12/10 13:02:56;;;;;;;11.63;6.00;;;7.90;99.90;;;;;;5126416;27;20277;-76
2020/12/10 13:05:36;;;;;;;14.23;6.20;;;7.80;99.90;;;;;;5130573;27;20230;-79
2020/12/10 13:08:02;;;;;;;15.03;6.00;;;7.80;99.90;;;;;;5128761;28;20212;-76
2020/12/10 13:10:29;;;;;;;10.67;5.67;;;7.90;99.90;;;;;;5125854;28;20198;-77
2020/12/10 13:15:57;;;;;;;11.20;6.03;;;8.00;99.90;;;;;;5117967;27;20199;-78
2020/12/10 13:18:23;;;;;;;12.03;6.10;;;8.20;99.90;;;;;;5128041;27;20241;-75
2020/12/10 13:20:52;;;;;;;11.60;6.47;;;8.30;99.90;;;;;;5128904;27;20206;-78
2020/12/10 13:23:18;;;;;;;14.57;6.17;;;8.30;99.90;;;;;;5125882;28;20797;-76
2020/12/10 13:29:06;;;;;;;11.37;6.30;;;8.10;99.90;;;;;;5129216;27;20197;-76
2020/12/10 13:31:34;;;;;;;13.90;5.97;;;8.10;99.90;;;;;;5119802;28;20538;-76
2020/12/10 13:34:05;;;;;;;12.87;6.17;;;8.00;99.90;;;;;;5124936;27;20294;-78
2020/12/10 13:36:33;;;;;;;12.10;6.20;;;7.80;99.90;;;;;;5127583;27;20279;-79
2020/12/10 13:44:27;;;;;;;13.13;6.00;;;7.60;99.90;;;;;;5123521;27;20227;-77
2020/12/10 13:46:53;;;;;;;13.73;6.37;;;7.40;99.90;;;;;;5127440;28;20673;-79
2020/12/10 13:49:20;;;;;;;9.67;5.30;;;7.10;99.90;;;;;;5127863;27;20274;-78
2020/12/10 13:51:50;;;;;;;8.23;4.80;;;7.00;99.90;;;;;;5132394;27;20206;-78
2020/12/10 13:54:16;;;;;;;9.27;5.13;;;6.90;99.90;;;;;;5131724;27;20647;-76
2020/12/10 13:57:05;;;;;;;11.83;5.07;;;6.90;99.90;;;;;;5132093;27;20571;-77
2020/12/10 13:59:32;;;;;;;9.23;4.83;;;6.60;99.90;;;;;;5131201;27;20574;-77
2020/12/10 14:02:01;;;;;;;10.00;4.97;;;6.80;99.90;;;;;;5131941;27;20561;-79
2020/12/10 14:07:13;;;;;;;7.43;4.50;;;7.00;99.90;;;;;;5128370;27;20244;-78
2020/12/10 14:09:46;;;;;;;10.00;4.60;;;7.00;99.90;;;;;;5129837;27;20203;-80
2020/12/10 14:12:13;;;;;;;11.27;4.87;;;6.90;99.90;;;;;;5129452;27;20219;-77
2020/12/10 14:14:40;;;;;;;8.47;4.30;;;6.90;99.90;;;;;;5131380;27;20238;-76
2020/12/10 14:17:27;;;;;;;6.87;3.73;;;6.90;99.90;;;;;;5130696;27;20660;-77
2020/12/10 14:19:54;;;;;;;8.33;4.20;;;6.90;99.90;;;;;;5125840;27;20231;-79
2020/12/10 14:22:20;;;;;;;8.43;4.30;;;6.90;99.90;;;;;;5130297;27;20201;-77